createdAt,value
2018-11-06T00:01:21.151Z,43.03
2018-11-06T00:04:29.274Z,40.70
2018-11-06T00:07:33.228Z,39.27
2018-11-06T00:10:37.133Z,38.97
2018-11-06T00:13:41.111Z,40.23
2018-11-06T00:16:45.094Z,37.60
2018-11-06T00:19:48.997Z,40.70
2018-11-06T00:22:52.989Z,37.93
2018-11-06T00:25:56.972Z,39.63
2018-11-06T00:29:01.202Z,36.53
2018-11-06T00:32:05.368Z,37.50
2018-11-06T00:35:10.970Z,36.90
2018-11-06T00:38:14.910Z,36.27
2018-11-06T00:41:18.878Z,39.80
2018-11-06T00:44:23.010Z,38.67
2018-11-06T00:47:26.960Z,42.07
2018-11-06T00:50:30.948Z,38.60
2018-11-06T00:53:34.930Z,38.73
2018-11-06T00:56:39.334Z,36.17
2018-11-06T00:59:43.332Z,37.73
2018-11-06T01:02:48.040Z,36.17
2018-11-06T01:05:52.042Z,36.53
2018-11-06T01:08:55.998Z,35.67
2018-11-06T01:12:00.847Z,39.63
2018-11-06T01:15:05.413Z,33.23
2018-11-06T01:18:09.393Z,29.83
2018-11-06T01:21:13.469Z,33.07
2018-11-06T01:24:17.431Z,36.40
2018-11-06T01:27:21.465Z,33.43
2018-11-06T01:30:25.388Z,33.90
2018-11-06T01:33:29.948Z,35.53
2018-11-06T01:36:33.861Z,36.20
2018-11-06T01:39:37.848Z,33.83
2018-11-06T01:42:43.310Z,32.63
2018-11-06T01:45:47.372Z,36.87
2018-11-06T01:48:51.458Z,34.13
2018-11-06T01:51:55.390Z,32.30
2018-11-06T01:54:59.486Z,27.13
2018-11-06T01:58:03.539Z,36.10
2018-11-06T02:01:07.643Z,24.43
2018-11-06T02:04:11.717Z,32.03
2018-11-06T02:07:15.758Z,28.67
2018-11-06T02:10:19.740Z,34.00
2018-11-06T02:13:23.855Z,27.10
2018-11-06T02:16:27.902Z,28.73
2018-11-06T02:19:33.189Z,34.07
2018-11-06T02:22:37.563Z,36.20
2018-11-06T02:25:41.536Z,33.87
2018-11-06T02:28:45.569Z,34.43
2018-11-06T02:31:49.634Z,32.30
2018-11-06T02:34:53.645Z,30.20
2018-11-06T02:37:57.561Z,35.37
2018-11-06T02:41:01.626Z,32.57
2018-11-06T02:44:05.770Z,31.23
2018-11-06T02:47:10.224Z,22.23
2018-11-06T02:50:15.214Z,27.27
2018-11-06T02:53:19.331Z,25.60
2018-11-06T02:56:23.338Z,24.93
2018-11-06T02:59:27.464Z,26.83
2018-11-06T03:02:31.830Z,24.07
2018-11-06T03:05:35.818Z,24.27
2018-11-06T03:08:40.007Z,25.43
2018-11-06T03:11:44.139Z,29.00
2018-11-06T03:14:48.273Z,31.37
2018-11-06T03:17:52.237Z,27.67
2018-11-06T03:20:56.211Z,29.67
2018-11-06T03:24:00.252Z,22.93
2018-11-06T03:27:04.332Z,21.63
2018-11-06T03:30:10.553Z,28.13
2018-11-06T03:33:14.634Z,23.27
2018-11-06T03:36:18.526Z,20.93
2018-11-06T03:39:22.558Z,25.77
2018-11-06T03:42:26.650Z,20.37
2018-11-06T03:45:30.693Z,17.63
2018-11-06T03:48:34.696Z,23.57
2018-11-06T03:51:38.794Z,26.03
2018-11-06T03:54:42.857Z,27.03
2018-11-06T03:57:46.750Z,26.67
2018-11-06T04:00:50.781Z,23.67
2018-11-06T04:03:55.008Z,29.77
2018-11-06T04:06:59.014Z,22.83
2018-11-06T04:10:02.986Z,25.03
2018-11-06T04:13:06.910Z,24.17
2018-11-06T04:16:10.887Z,28.50
2018-11-06T04:19:14.967Z,29.50
2018-11-06T04:22:18.880Z,29.70
2018-11-06T04:25:22.852Z,24.77
2018-11-06T04:28:26.815Z,22.00
2018-11-06T04:31:31.401Z,27.60
2018-11-06T04:34:35.416Z,21.83
2018-11-06T04:37:40.273Z,19.47
2018-11-06T04:40:44.146Z,22.20
2018-11-06T04:43:47.991Z,24.80
2018-11-06T04:46:51.888Z,27.50
2018-11-06T04:49:56.104Z,23.43
2018-11-06T04:53:00.025Z,26.87
2018-11-06T04:56:05.170Z,25.63
2018-11-06T04:59:09.063Z,24.30
2018-11-06T05:02:13.032Z,27.20
2018-11-06T05:05:16.727Z,29.00
2018-11-06T05:08:20.633Z,30.03
2018-11-06T05:11:24.627Z,23.97
2018-11-06T05:14:28.482Z,29.20
2018-11-06T05:17:32.697Z,24.97
2018-11-06T05:20:36.576Z,23.30
2018-11-06T05:23:40.388Z,22.37
2018-11-06T05:26:44.253Z,24.33
2018-11-06T05:29:48.516Z,25.47
2018-11-06T05:32:52.503Z,24.50
2018-11-06T05:35:56.412Z,44.87
2018-11-06T05:39:00.428Z,25.20
2018-11-06T05:42:04.260Z,28.30
2018-11-06T05:45:08.176Z,25.70
2018-11-06T05:48:12.013Z,27.93
2018-11-06T05:51:15.821Z,30.13
2018-11-06T05:54:19.671Z,25.53
2018-11-06T05:57:23.656Z,22.83
2018-11-06T06:00:27.698Z,28.47
2018-11-06T06:03:31.649Z,24.40
2018-11-06T06:06:35.487Z,34.00
2018-11-06T06:09:39.401Z,33.37
2018-11-06T06:12:43.295Z,27.23
2018-11-06T06:15:47.110Z,55.77
2018-11-06T06:18:51.027Z,27.60
2018-11-06T06:21:54.937Z,26.07
2018-11-06T06:24:58.778Z,30.40
2018-11-06T06:28:02.666Z,31.13
2018-11-06T06:31:06.586Z,29.23
2018-11-06T06:34:10.435Z,28.50
2018-11-06T06:37:14.179Z,29.10
2018-11-06T06:40:18.635Z,28.60
2018-11-06T06:43:22.575Z,29.57
2018-11-06T06:46:26.555Z,29.63
2018-11-06T06:49:30.364Z,30.67
2018-11-06T06:52:34.189Z,33.13
2018-11-06T06:55:38.089Z,27.70
2018-11-06T06:58:41.951Z,27.33
2018-11-06T07:01:45.794Z,29.57
2018-11-06T07:04:49.707Z,27.50
2018-11-06T07:07:53.652Z,25.80
2018-11-06T07:10:57.531Z,26.60
2018-11-06T07:14:01.438Z,28.60
2018-11-06T07:17:05.778Z,32.43
2018-11-06T07:20:12.394Z,31.27
2018-11-06T07:23:16.364Z,29.90
2018-11-06T07:26:20.286Z,26.30
2018-11-06T07:29:24.123Z,35.50
2018-11-06T07:32:28.083Z,35.10
2018-11-06T07:35:32.473Z,48.83
2018-11-06T07:38:36.139Z,45.60
2018-11-06T07:41:40.958Z,36.07
2018-11-06T07:44:44.971Z,45.90
2018-11-06T07:47:48.935Z,43.47
2018-11-06T07:50:52.802Z,50.03
2018-11-06T07:53:56.742Z,46.50
2018-11-06T07:57:00.634Z,48.07
2018-11-06T08:00:04.943Z,46.23
2018-11-06T08:03:08.722Z,47.70
2018-11-06T08:06:12.652Z,43.60
2018-11-06T08:09:16.486Z,42.53
2018-11-06T08:12:20.337Z,42.87
2018-11-06T08:15:24.207Z,46.00
2018-11-06T08:18:28.273Z,41.47
2018-11-06T08:21:32.133Z,43.43
2018-11-06T08:24:35.941Z,43.37
2018-11-06T08:27:40.957Z,42.60
2018-11-06T08:30:44.838Z,44.73
2018-11-06T08:33:48.522Z,42.47
2018-11-06T08:36:52.340Z,41.97
2018-11-06T08:39:56.345Z,42.53
2018-11-06T08:43:00.259Z,39.23
2018-11-06T08:46:04.194Z,46.07
2018-11-06T08:49:08.065Z,43.13
2018-11-06T08:52:12.079Z,38.20
2018-11-06T08:55:16.924Z,38.73
2018-11-06T08:58:20.855Z,38.33
2018-11-06T09:01:24.645Z,43.10
2018-11-06T09:04:28.565Z,42.87
2018-11-06T09:07:32.383Z,42.67
2018-11-06T09:10:36.266Z,40.33
2018-11-06T09:13:40.293Z,41.83
2018-11-06T09:16:44.281Z,42.67
2018-11-06T09:19:48.218Z,40.37
2018-11-06T09:22:52.133Z,43.03
2018-11-06T09:25:56.046Z,47.47
2018-11-06T09:29:00.069Z,42.97
2018-11-06T09:32:04.085Z,41.37
2018-11-06T09:35:08.990Z,42.07
2018-11-06T09:38:12.871Z,43.77
2018-11-06T09:41:16.752Z,39.57
2018-11-06T09:44:20.760Z,37.63
2018-11-06T09:47:24.662Z,41.53
2018-11-06T09:50:28.582Z,41.30
2018-11-06T09:53:32.485Z,38.53
2018-11-06T09:56:36.350Z,39.23
2018-11-06T09:59:40.214Z,43.57
2018-11-06T10:02:44.089Z,39.30
2018-11-06T10:05:48.086Z,38.40
2018-11-06T10:08:51.936Z,41.37
2018-11-06T10:11:55.800Z,40.63
2018-11-06T10:14:59.808Z,37.67
2018-11-06T10:18:03.672Z,42.00
2018-11-06T10:21:07.673Z,36.60
2018-11-06T10:24:11.543Z,41.30
2018-11-06T10:27:16.596Z,37.23
2018-11-06T10:30:21.207Z,36.70
2018-11-06T10:33:25.198Z,36.63
2018-11-06T10:36:29.141Z,38.27
2018-11-06T10:39:33.033Z,38.87
2018-11-06T10:42:37.046Z,36.70
2018-11-06T10:45:40.965Z,38.23
2018-11-06T10:48:44.863Z,37.07
2018-11-06T10:51:48.798Z,34.57
2018-11-06T10:54:53.206Z,37.37
2018-11-06T10:57:57.063Z,37.83
2018-11-06T11:01:05.129Z,36.77
2018-11-06T11:04:13.182Z,38.13
2018-11-06T11:07:16.996Z,37.53
2018-11-06T11:10:20.938Z,35.77
2018-11-06T11:13:24.911Z,32.63
2018-11-06T11:16:28.802Z,33.17
2018-11-06T11:19:32.644Z,34.87
2018-11-06T11:22:36.506Z,34.13
2018-11-06T11:25:40.450Z,32.83
2018-11-06T11:28:44.375Z,35.03
2018-11-06T11:31:48.257Z,31.83
2018-11-06T11:34:52.197Z,32.13
2018-11-06T11:37:56.388Z,32.60
2018-11-06T11:41:00.275Z,33.00
2018-11-06T11:44:04.208Z,34.30
2018-11-06T11:47:08.147Z,32.50
2018-11-06T11:50:13.753Z,31.03
2018-11-06T11:53:17.621Z,29.83
2018-11-06T11:56:21.504Z,29.03
2018-11-06T11:59:25.346Z,31.60
2018-11-06T12:02:29.367Z,33.53
2018-11-06T12:05:33.365Z,30.43
2018-11-06T12:08:37.370Z,30.67
2018-11-06T12:11:41.201Z,31.87
2018-11-06T12:14:45.203Z,28.10
2018-11-06T12:17:49.233Z,29.83
2018-11-06T12:20:53.049Z,32.10
2018-11-06T12:23:56.963Z,29.07
2018-11-06T12:27:00.766Z,32.50
2018-11-06T12:30:05.624Z,30.07
2018-11-06T12:33:09.506Z,35.60
2018-11-06T12:36:13.279Z,31.67
2018-11-06T12:39:17.206Z,29.83
2018-11-06T12:42:21.104Z,32.80
2018-11-06T12:45:24.936Z,28.93
2018-11-06T12:48:28.722Z,35.43
2018-11-06T12:51:32.562Z,31.17
2018-11-06T12:54:36.362Z,29.57
2018-11-06T12:57:40.307Z,34.07
2018-11-06T13:00:44.088Z,30.50
2018-11-06T13:03:48.009Z,27.27
2018-11-06T13:06:51.902Z,32.03
2018-11-06T13:09:55.793Z,30.23
2018-11-06T13:12:59.652Z,29.00
2018-11-06T13:16:04.574Z,30.20
2018-11-06T13:19:08.414Z,31.77
2018-11-06T13:22:12.416Z,32.07
2018-11-06T13:25:16.288Z,27.03
2018-11-06T13:28:20.129Z,31.57
2018-11-06T13:31:24.016Z,31.90
2018-11-06T13:34:27.960Z,33.83
2018-11-06T13:37:31.847Z,30.50
2018-11-06T13:40:35.763Z,30.23
2018-11-06T13:43:39.827Z,33.20
2018-11-06T13:46:43.540Z,32.37
2018-11-06T13:49:47.379Z,33.50
2018-11-06T13:52:51.235Z,31.63
2018-11-06T13:55:55.226Z,31.67
2018-11-06T13:58:59.152Z,31.60
2018-11-06T14:02:02.926Z,37.17
2018-11-06T14:05:06.805Z,34.03
2018-11-06T14:08:10.686Z,30.93
2018-11-06T14:11:14.502Z,34.20
2018-11-06T14:14:18.404Z,32.13
2018-11-06T14:17:22.212Z,33.47
2018-11-06T14:20:26.115Z,32.13
2018-11-06T14:23:30.048Z,31.20
2018-11-06T14:26:33.881Z,32.03
2018-11-06T14:29:37.836Z,32.47
2018-11-06T14:32:42.204Z,30.73
2018-11-06T14:35:46.148Z,31.27
2018-11-06T14:38:50.130Z,31.27
2018-11-06T14:41:53.975Z,32.00
2018-11-06T14:44:57.835Z,33.47
2018-11-06T14:48:01.826Z,30.77
2018-11-06T14:51:05.796Z,34.20
2018-11-06T14:54:09.598Z,30.47
2018-11-06T14:57:13.549Z,28.77
2018-11-06T15:00:18.947Z,30.57
2018-11-06T15:03:22.828Z,29.90
2018-11-06T15:06:26.806Z,30.53
2018-11-06T15:09:30.572Z,34.20
2018-11-06T15:12:34.475Z,30.23
2018-11-06T15:15:38.295Z,32.23
2018-11-06T15:18:42.282Z,31.30
2018-11-06T15:21:46.097Z,29.67
2018-11-06T15:24:49.968Z,33.50
2018-11-06T15:27:53.872Z,36.53
2018-11-06T15:30:57.966Z,32.90
2018-11-06T15:34:01.835Z,23.20
2018-11-06T15:37:06.324Z,32.80
2018-11-06T15:40:12.740Z,46.17
2018-11-06T15:43:16.621Z,86.77
2018-11-06T15:46:20.597Z,49.53
2018-11-06T15:49:24.513Z,59.17
2018-11-06T15:52:28.372Z,53.17
2018-11-06T15:55:32.276Z,41.60
2018-11-06T15:58:36.238Z,41.00
2018-11-06T16:01:40.170Z,20.03
2018-11-06T16:04:43.942Z,26.60
2018-11-06T16:07:48.150Z,25.77
2018-11-06T16:10:52.093Z,33.23
2018-11-06T16:13:56.021Z,28.07
2018-11-06T16:17:00.264Z,31.90
2018-11-06T16:20:04.145Z,31.33
2018-11-06T16:23:08.062Z,24.43
2018-11-06T16:26:11.949Z,29.03
2018-11-06T16:29:16.026Z,28.10
2018-11-06T16:32:19.827Z,24.27
2018-11-06T16:35:24.308Z,22.37
2018-11-06T16:38:28.325Z,23.30
2018-11-06T16:41:32.183Z,21.50
2018-11-06T16:44:36.070Z,39.03
2018-11-06T16:47:39.982Z,33.07
2018-11-06T16:50:43.771Z,35.43
2018-11-06T16:53:47.727Z,25.73
2018-11-06T16:56:51.383Z,19.13
2018-11-06T16:59:55.206Z,11.23
2018-11-06T17:02:59.060Z,17.00
2018-11-06T17:06:02.946Z,18.47
2018-11-06T17:09:09.538Z,17.30
2018-11-06T17:12:13.511Z,24.57
2018-11-06T17:15:21.678Z,22.87
2018-11-06T17:18:25.519Z,36.70
2018-11-06T17:21:29.463Z,55.90
2018-11-06T17:24:33.397Z,29.20
2018-11-06T17:27:37.649Z,28.33
2018-11-06T17:30:41.530Z,19.90
2018-11-06T17:33:45.447Z,16.40
2018-11-06T17:36:49.249Z,24.87
2018-11-06T17:39:53.161Z,12.53
2018-11-06T17:42:57.027Z,28.10
2018-11-06T17:46:01.003Z,32.90
2018-11-06T17:49:04.881Z,26.20
2018-11-06T17:52:08.914Z,30.80
2018-11-06T17:55:14.656Z,26.37
2018-11-06T17:58:18.417Z,23.93
2018-11-06T18:01:22.383Z,27.47
2018-11-06T18:04:25.935Z,19.10
2018-11-06T18:07:29.584Z,38.70
2018-11-06T18:10:33.558Z,23.97
2018-11-06T18:13:37.391Z,19.63
2018-11-06T18:16:41.363Z,28.83
2018-11-06T18:19:45.253Z,22.43
2018-11-06T18:22:49.136Z,24.43
2018-11-06T18:25:53.103Z,20.13
2018-11-06T18:28:56.883Z,22.60
2018-11-06T18:32:01.056Z,30.47
2018-11-06T18:35:05.980Z,30.27
2018-11-06T18:38:09.840Z,30.10
2018-11-06T18:41:13.768Z,15.10
2018-11-06T18:44:17.814Z,24.20
2018-11-06T18:47:21.734Z,28.70
2018-11-06T18:50:25.718Z,12.40
2018-11-06T18:53:29.719Z,7.40
2018-11-06T18:56:33.636Z,9.77
2018-11-06T18:59:37.486Z,11.57
2018-11-06T19:02:42.407Z,14.33
2018-11-06T19:05:46.312Z,17.13
2018-11-06T19:08:50.200Z,12.97
2018-11-06T19:11:54.137Z,10.83
2018-11-06T19:14:58.186Z,12.07
2018-11-06T19:18:02.159Z,23.27
2018-11-06T19:21:06.198Z,11.00
2018-11-06T19:24:10.170Z,18.47
2018-11-06T19:27:13.992Z,12.87
2018-11-06T19:30:19.295Z,20.73
2018-11-06T19:33:23.060Z,21.87
2018-11-06T19:36:26.992Z,12.43
2018-11-06T19:39:30.913Z,15.83
2018-11-06T19:42:34.857Z,21.70
2018-11-06T19:45:38.651Z,17.50
2018-11-06T19:48:42.512Z,29.87
2018-11-06T19:51:46.534Z,19.43
2018-11-06T19:54:50.437Z,25.97
2018-11-06T19:57:54.297Z,14.63
2018-11-06T20:00:58.328Z,14.87
2018-11-06T20:04:02.167Z,14.27
2018-11-06T20:07:06.203Z,12.97
2018-11-06T20:10:12.441Z,15.07
2018-11-06T20:13:16.390Z,9.47
2018-11-06T20:16:20.291Z,8.43
2018-11-06T20:19:24.205Z,10.07
2018-11-06T20:22:28.003Z,10.83
2018-11-06T20:25:31.822Z,10.30
2018-11-06T20:28:35.732Z,10.67
2018-11-06T20:31:39.647Z,12.00
2018-11-06T20:34:43.571Z,15.63
2018-11-06T20:37:47.662Z,11.47
2018-11-06T20:40:51.456Z,11.13
2018-11-06T20:43:55.353Z,14.50
2018-11-06T20:46:59.111Z,16.23
2018-11-06T20:50:03.227Z,17.80
2018-11-06T20:53:07.098Z,20.53
2018-11-06T20:56:11.158Z,16.53
2018-11-06T20:59:14.818Z,15.73
2018-11-06T21:02:18.696Z,17.97
2018-11-06T21:05:22.616Z,22.73
2018-11-06T21:08:26.480Z,15.37
2018-11-06T21:11:30.501Z,16.20
2018-11-06T21:14:34.322Z,18.57
2018-11-06T21:17:38.178Z,15.57
2018-11-06T21:20:42.045Z,16.37
2018-11-06T21:23:45.922Z,19.97
2018-11-06T21:26:49.898Z,23.33
2018-11-06T21:29:53.670Z,26.87
2018-11-06T21:32:57.561Z,23.47
2018-11-06T21:36:01.416Z,19.07
2018-11-06T21:39:08.083Z,17.23
2018-11-06T21:42:12.102Z,17.27
2018-11-06T21:45:16.910Z,25.63
2018-11-06T21:48:20.792Z,26.83
2018-11-06T21:51:24.690Z,37.50
2018-11-06T21:54:28.635Z,23.77
2018-11-06T21:57:32.647Z,31.33
2018-11-06T22:00:36.707Z,23.63
2018-11-06T22:03:40.640Z,22.17
2018-11-06T22:06:44.564Z,16.77
2018-11-06T22:09:48.430Z,21.20
2018-11-06T22:12:52.470Z,19.03
2018-11-06T22:15:56.317Z,19.17
2018-11-06T22:19:00.284Z,23.03
2018-11-06T22:22:04.273Z,19.93
2018-11-06T22:25:08.247Z,20.10
2018-11-06T22:28:12.328Z,19.20
2018-11-06T22:31:16.268Z,20.03
2018-11-06T22:34:20.283Z,17.77
2018-11-06T22:37:24.251Z,16.57
2018-11-06T22:40:28.126Z,22.80
2018-11-06T22:43:32.120Z,26.23
2018-11-06T22:46:36.564Z,26.90
2018-11-06T22:49:40.374Z,28.10
2018-11-06T22:52:44.901Z,24.67
2018-11-06T22:55:48.955Z,19.83
2018-11-06T22:58:52.920Z,18.57
2018-11-06T23:01:56.960Z,19.80
2018-11-06T23:05:00.931Z,19.70
2018-11-06T23:08:09.033Z,16.67
2018-11-06T23:11:12.982Z,20.90
2018-11-06T23:14:17.062Z,16.73
2018-11-06T23:17:20.901Z,16.77
2018-11-06T23:20:24.900Z,16.57
2018-11-06T23:23:28.863Z,19.60
2018-11-06T23:26:32.858Z,18.03
2018-11-06T23:29:36.768Z,16.47
2018-11-06T23:32:40.864Z,30.50
2018-11-06T23:35:44.896Z,30.10
2018-11-06T23:38:48.897Z,27.20
2018-11-06T23:41:52.858Z,23.07
2018-11-06T23:44:56.807Z,29.57
2018-11-06T23:48:00.768Z,27.33
2018-11-06T23:51:04.692Z,20.63
2018-11-06T23:54:08.728Z,18.73
2018-11-06T23:57:12.806Z,17.90
